createdAt,value
2018-02-14T00:01:01.768Z,1013.9
2018-02-14T00:06:01.922Z,1013.9
2018-02-14T00:11:02.064Z,1013.9
2018-02-14T00:16:01.070Z,1013.9
2018-02-14T00:21:01.150Z,1013.9
2018-02-14T00:26:01.406Z,1014
2018-02-14T00:31:01.225Z,1014
2018-02-14T00:36:01.437Z,1014
2018-02-14T00:41:01.108Z,1014
2018-02-14T00:46:01.598Z,1014.3
2018-02-14T00:51:01.145Z,1014.3
2018-02-14T00:56:01.491Z,1014.4
2018-02-14T01:01:01.233Z,1014.4
2018-02-14T01:06:01.803Z,1014.4
2018-02-14T01:11:01.875Z,1014.4
2018-02-14T01:16:01.627Z,1014.5
2018-02-14T01:21:01.931Z,1014.5
2018-02-14T01:26:01.784Z,1014.5
2018-02-14T01:31:01.246Z,1014.5
2018-02-14T01:36:01.389Z,1014.5
2018-02-14T01:41:01.490Z,1014.5
2018-02-14T01:46:01.516Z,1014.7
2018-02-14T01:51:01.695Z,1014.7
2018-02-14T01:56:02.025Z,1014.8
2018-02-14T02:01:01.929Z,1014.8
2018-02-14T02:06:01.653Z,1014.8
2018-02-14T02:11:01.502Z,1014.8
2018-02-14T02:16:01.777Z,1014.9
2018-02-14T02:21:02.034Z,1014.9
2018-02-14T02:26:01.474Z,1014.9
2018-02-14T02:31:01.945Z,1014.9
2018-02-14T02:36:01.171Z,1014.9
2018-02-14T02:41:01.784Z,1014.9
2018-02-14T02:46:01.318Z,1015
2018-02-14T02:51:01.898Z,1015
2018-02-14T02:56:01.357Z,1015
2018-02-14T03:01:01.916Z,1015
2018-02-14T03:06:02.033Z,1015
2018-02-14T03:11:01.167Z,1015
2018-02-14T03:16:01.966Z,1015
2018-02-14T03:21:01.513Z,1015
2018-02-14T03:26:01.762Z,1015.1
2018-02-14T03:31:01.424Z,1015.1
2018-02-14T03:36:01.793Z,1015.1
2018-02-14T03:41:01.686Z,1015.1
2018-02-14T03:46:01.812Z,1015.2
2018-02-14T03:51:01.469Z,1015.2
2018-02-14T03:56:01.828Z,1015.2
2018-02-14T04:01:01.434Z,1015.2
2018-02-14T04:06:01.771Z,1015.2
2018-02-14T04:11:01.605Z,1015.2
2018-02-14T04:16:01.286Z,1015.2
2018-02-14T04:21:01.374Z,1015.2
2018-02-14T04:26:01.472Z,1015.4
2018-02-14T04:31:01.760Z,1015.4
2018-02-14T04:36:01.870Z,1015.4
2018-02-14T04:41:01.994Z,1015.4
2018-02-14T04:46:02.070Z,1015.5
2018-02-14T04:51:02.103Z,1015.5
2018-02-14T04:56:02.165Z,1015.7
2018-02-14T05:01:01.432Z,1015.7
2018-02-14T05:06:01.502Z,1015.7
2018-02-14T05:11:01.591Z,1015.7
2018-02-14T05:16:01.720Z,1016
2018-02-14T05:21:01.851Z,1016
2018-02-14T05:26:02.112Z,1016
2018-02-14T05:31:01.875Z,1016
2018-02-14T05:36:02.124Z,1016
2018-02-14T05:41:02.291Z,1016
2018-02-14T05:46:01.333Z,1016.1
2018-02-14T05:51:11.418Z,1016.1
2018-02-14T05:56:01.495Z,1016.2
2018-02-14T06:01:01.766Z,1016.2
2018-02-14T06:06:01.413Z,1016.3
2018-02-14T06:11:01.491Z,1016.3
2018-02-14T06:16:01.628Z,1016.3
2018-02-14T06:21:01.729Z,1016.3
2018-02-14T06:26:07.119Z,1016.5
2018-02-14T06:31:02.439Z,1016.5
2018-02-14T06:36:01.486Z,1016.6
2018-02-14T06:41:01.690Z,1016.6
2018-02-14T06:46:01.868Z,1016.7
2018-02-14T06:51:01.902Z,1016.7
2018-02-14T06:56:01.936Z,1016.7
2018-02-14T07:01:02.120Z,1016.7
2018-02-14T07:06:02.401Z,1016.7
2018-02-14T07:11:02.405Z,1016.7
2018-02-14T07:16:01.744Z,1016.8
2018-02-14T07:21:01.992Z,1016.8
2018-02-14T07:26:02.053Z,1017.1
2018-02-14T07:31:02.095Z,1017.1
2018-02-14T07:36:02.170Z,1017.1
2018-02-14T07:41:02.201Z,1017.1
2018-02-14T07:46:02.264Z,1017.2
2018-02-14T07:51:02.465Z,1017.2
2018-02-14T07:56:01.538Z,1017.2
2018-02-14T08:01:01.760Z,1017.2
2018-02-14T08:06:01.944Z,1017.2
2018-02-14T08:11:02.435Z,1017.2
2018-02-14T08:16:01.624Z,1017.3
2018-02-14T08:21:01.729Z,1017.3
2018-02-14T08:26:01.827Z,1017.4
2018-02-14T08:31:01.909Z,1017.4
2018-02-14T08:36:02.009Z,1017.4
2018-02-14T08:41:02.190Z,1017.4
2018-02-14T08:46:02.288Z,1017.5
2018-02-14T08:51:02.272Z,1017.5
2018-02-14T08:56:02.360Z,1017.6
2018-02-14T09:01:01.882Z,1017.6
2018-02-14T09:06:01.646Z,1017.5
2018-02-14T09:11:01.680Z,1017.5
2018-02-14T09:16:01.850Z,1017.9
2018-02-14T09:21:01.913Z,1017.9
2018-02-14T09:26:01.918Z,1018
2018-02-14T09:31:01.984Z,1018
2018-02-14T09:36:02.025Z,1018
2018-02-14T09:41:02.230Z,1018
2018-02-14T09:46:02.327Z,1018.1
2018-02-14T09:51:02.490Z,1018.1
2018-02-14T09:56:02.525Z,1018.2
2018-02-14T10:01:01.720Z,1018.2
2018-02-14T10:06:02.065Z,1018.2
2018-02-14T10:11:02.187Z,1018.2
2018-02-14T10:16:02.256Z,1018.4
2018-02-14T10:21:02.357Z,1018.4
2018-02-14T10:26:02.433Z,1018.2
2018-02-14T10:31:02.578Z,1018.2
2018-02-14T10:36:01.726Z,1018.2
2018-02-14T10:41:01.938Z,1018.2
2018-02-14T10:46:01.964Z,1018.2
2018-02-14T10:51:02.011Z,1018.2
2018-02-14T10:56:02.103Z,1018.2
2018-02-14T11:01:02.314Z,1018.2
2018-02-14T11:06:02.324Z,1018.2
2018-02-14T11:11:02.658Z,1018.2
2018-02-14T11:16:01.779Z,1018
2018-02-14T11:21:01.797Z,1018
2018-02-14T11:26:01.743Z,1018
2018-02-14T11:31:02.235Z,1018
2018-02-14T11:36:02.339Z,1018
2018-02-14T11:41:02.435Z,1018
2018-02-14T11:46:02.599Z,1017.8
2018-02-14T11:51:02.686Z,1017.8
2018-02-14T11:56:01.776Z,1017.9
2018-02-14T12:01:01.979Z,1017.9
2018-02-14T12:06:02.619Z,1017.9
2018-02-14T12:11:01.847Z,1017.9
2018-02-14T12:16:02.068Z,1017.8
2018-02-14T12:21:02.151Z,1017.8
2018-02-14T12:26:02.755Z,1017.6
2018-02-14T12:31:01.986Z,1017.6
2018-02-14T12:36:02.105Z,1017.5
2018-02-14T12:41:02.196Z,1017.5
2018-02-14T12:46:02.364Z,1017.5
2018-02-14T12:51:02.400Z,1017.5
2018-02-14T12:56:02.433Z,1017.5
2018-02-14T13:01:02.591Z,1017.5
2018-02-14T13:06:02.746Z,1017.5
2018-02-14T13:11:02.123Z,1017.5
2018-02-14T13:16:02.140Z,1017.4
2018-02-14T13:21:02.214Z,1017.4
2018-02-14T13:26:02.324Z,1017.4
2018-02-14T13:31:02.428Z,1017.4
2018-02-14T13:36:02.501Z,1017.4
2018-02-14T13:41:02.711Z,1017.4
2018-02-14T13:46:01.930Z,1017.4
2018-02-14T13:51:02.001Z,1017.4
2018-02-14T13:56:02.080Z,1017.4
2018-02-14T14:01:02.277Z,1017.4
2018-02-14T14:06:02.039Z,1017.4
2018-02-14T14:11:01.976Z,1017.4
2018-02-14T14:16:02.078Z,1017.4
2018-02-14T14:21:02.122Z,1017.4
2018-02-14T14:26:02.367Z,1017.4
2018-02-14T14:31:02.528Z,1017.4
2018-02-14T14:36:02.606Z,1017.4
2018-02-14T14:41:02.538Z,1017.4
2018-02-14T14:46:02.632Z,1017.5
2018-02-14T14:51:02.681Z,1017.5
2018-02-14T14:56:02.940Z,1017.6
2018-02-14T15:01:02.226Z,1017.6
2018-02-14T15:06:02.320Z,1017.7
2018-02-14T15:11:02.873Z,1017.7
2018-02-14T15:16:02.100Z,1017.8
2018-02-14T15:21:02.130Z,1017.8
2018-02-14T15:26:02.289Z,1017.7
2018-02-14T15:31:02.499Z,1017.7
2018-02-14T15:36:02.616Z,1017.7
2018-02-14T15:41:02.738Z,1017.7
2018-02-14T15:46:02.897Z,1017.8
2018-02-14T15:51:02.952Z,1017.8
2018-02-14T15:56:02.016Z,1018
2018-02-14T16:01:02.141Z,1018
2018-02-14T16:06:02.322Z,1018
2018-02-14T16:11:02.766Z,1018
2018-02-14T16:16:02.839Z,1018.1
2018-02-14T16:21:02.830Z,1018.1
2018-02-14T16:26:03.021Z,1018.2
2018-02-14T16:31:02.087Z,1018.2
2018-02-14T16:36:02.171Z,1018.2
2018-02-14T16:41:02.287Z,1018.2
2018-02-14T16:46:02.387Z,1018.3
2018-02-14T16:51:02.523Z,1018.3
2018-02-14T16:56:02.169Z,1018.4
2018-02-14T17:01:02.458Z,1018.4
2018-02-14T17:06:02.534Z,1018.4
2018-02-14T17:11:02.965Z,1018.4
2018-02-14T17:16:02.117Z,1018.5
2018-02-14T17:21:02.208Z,1018.5
2018-02-14T17:26:02.337Z,1018.5
2018-02-14T17:31:02.216Z,1018.5
2018-02-14T17:36:02.250Z,1018.5
2018-02-14T17:41:02.274Z,1018.5
2018-02-14T17:46:02.364Z,1018.6
2018-02-14T17:51:02.371Z,1018.6
2018-02-14T17:56:02.471Z,1018.7
2018-02-14T18:01:02.717Z,1018.7
2018-02-14T18:06:02.839Z,1018.7
2018-02-14T18:11:02.542Z,1018.7
2018-02-14T18:16:02.804Z,1018.7
2018-02-14T18:21:02.862Z,1018.7
2018-02-14T18:26:03.027Z,1018.6
2018-02-14T18:31:02.208Z,1018.6
2018-02-14T18:36:02.386Z,1018.6
2018-02-14T18:41:02.613Z,1018.6
2018-02-14T18:46:02.833Z,1018.6
2018-02-14T18:51:03.039Z,1018.6
2018-02-14T18:56:03.074Z,1018.6
2018-02-14T19:01:02.292Z,1018.6
2018-02-14T19:06:02.518Z,1018.6
2018-02-14T19:11:02.681Z,1018.6
2018-02-14T19:16:02.791Z,1018.5
2018-02-14T19:21:02.892Z,1018.5
2018-02-14T19:26:02.975Z,1018.5
2018-02-14T19:31:03.160Z,1018.5
2018-02-14T19:36:03.141Z,1018.5
2018-02-14T19:41:02.344Z,1018.5
2018-02-14T19:46:02.442Z,1018.2
2018-02-14T19:51:02.456Z,1018.2
2018-02-14T19:56:02.473Z,1018.1
2018-02-14T20:01:02.972Z,1018.1
2018-02-14T20:06:03.039Z,1018.1
2018-02-14T20:11:02.344Z,1018.1
2018-02-14T20:16:02.410Z,1018.4
2018-02-14T20:21:02.787Z,1018.4
2018-02-14T20:26:02.939Z,1018.3
2018-02-14T20:31:02.501Z,1018.3
2018-02-14T20:36:02.570Z,1018.3
2018-02-14T20:41:02.800Z,1018.3
2018-02-14T20:46:02.851Z,1018.2
2018-02-14T20:51:02.816Z,1018.2
2018-02-14T20:56:02.992Z,1018.1
2018-02-14T21:01:03.276Z,1018.1
2018-02-14T21:06:02.383Z,1018.1
2018-02-14T21:11:03.083Z,1018.1
2018-02-14T21:16:03.226Z,1017.9
2018-02-14T21:21:03.208Z,1017.9
2018-02-14T21:26:03.166Z,1017.6
2018-02-14T21:31:03.337Z,1017.6
2018-02-14T21:36:02.367Z,1017.6
2018-02-14T21:41:02.505Z,1017.6
2018-02-14T21:46:02.607Z,1017.5
2018-02-14T21:51:02.978Z,1017.5
2018-02-14T21:56:03.103Z,1017.4
2018-02-14T22:01:03.301Z,1017.4
2018-02-14T22:06:03.399Z,1017.4
2018-02-14T22:11:02.487Z,1017.4
2018-02-14T22:16:02.604Z,1017.5
2018-02-14T22:21:02.701Z,1017.5
2018-02-14T22:26:02.758Z,1017.5
2018-02-14T22:31:02.858Z,1017.5
2018-02-14T22:36:03.133Z,1017.5
2018-02-14T22:41:03.224Z,1017.5
2018-02-14T22:46:02.513Z,1017.5
2018-02-14T22:51:02.540Z,1017.5
2018-02-14T22:56:02.513Z,1017.5
2018-02-14T23:01:02.806Z,1017.5
2018-02-14T23:06:03.066Z,1017.5
2018-02-14T23:11:03.127Z,1017.5
2018-02-14T23:16:03.177Z,1017.4
2018-02-14T23:21:03.352Z,1017.4
2018-02-14T23:26:03.322Z,1017.2
2018-02-14T23:31:02.700Z,1017.2
2018-02-14T23:36:02.727Z,1017.2
2018-02-14T23:41:02.797Z,1017.2
2018-02-14T23:46:02.957Z,1017.1
2018-02-14T23:51:02.853Z,1017.1
2018-02-14T23:56:02.763Z,1017
